Terminal Aerodrome Forecast
Issued by NWS

Home | Current Version | Previous Version | Text Only | Print | Product List | Glossary On
Versions: 1 2 3 4 5 6 7 8 9 10 11 12
000
FTUS42 KMLB 202300
TAFLEE
TAF
KLEE 202334Z 2100/2124 29007KT P6SM FEW250
     FM211400 23005KT P6SM FEW040 FEW250
     FM212300 18004KT P6SM FEW040=

USA.gov is the U.S. government's official web portal to all federal, state and local government web resources and services.